createdAt,value
2023-03-17T00:01:19.908Z,7.22
2023-03-17T00:03:49.839Z,7.22
2023-03-17T00:06:23.726Z,7.20
2023-03-17T00:08:52.697Z,7.26
2023-03-17T00:11:22.013Z,7.16
2023-03-17T00:13:49.784Z,7.10
2023-03-17T00:16:19.988Z,7.15
2023-03-17T00:18:48.279Z,7.18
2023-03-17T00:21:19.773Z,7.17
2023-03-17T00:23:51.562Z,7.15
2023-03-17T00:26:20.598Z,7.17
2023-03-17T00:28:48.401Z,7.12
2023-03-17T00:31:17.687Z,7.10
2023-03-17T00:33:46.433Z,7.07
2023-03-17T00:36:17.897Z,7.10
2023-03-17T00:38:45.964Z,7.08
2023-03-17T00:41:13.979Z,7.07
2023-03-17T00:43:43.283Z,7.05
2023-03-17T00:46:14.581Z,7.07
2023-03-17T00:48:43.424Z,7.03
2023-03-17T00:51:11.976Z,7.02
2023-03-17T00:53:40.527Z,7.04
2023-03-17T00:56:14.322Z,7.00
2023-03-17T00:58:43.864Z,6.99
2023-03-17T01:01:12.301Z,6.91
2023-03-17T01:03:40.475Z,6.94
2023-03-17T01:06:11.246Z,6.85
2023-03-17T01:08:40.608Z,6.87
2023-03-17T01:11:14.603Z,6.87
2023-03-17T01:13:43.571Z,6.88
2023-03-17T01:16:12.222Z,6.90
2023-03-17T01:18:39.965Z,6.91
2023-03-17T01:21:09.432Z,6.92
2023-03-17T01:23:37.898Z,6.94
2023-03-17T01:26:06.530Z,6.98
2023-03-17T01:28:34.283Z,6.99
2023-03-17T01:31:03.387Z,6.99
2023-03-17T01:33:31.030Z,7.06
2023-03-17T01:35:58.653Z,7.02
2023-03-17T01:38:26.302Z,7.00
2023-03-17T01:40:56.663Z,7.05
2023-03-17T01:43:27.549Z,7.09
2023-03-17T01:46:29.581Z,7.06
2023-03-17T01:49:10.009Z,6.98
2023-03-17T01:51:44.074Z,6.93
2023-03-17T01:54:15.187Z,7.02
2023-03-17T01:56:46.310Z,7.02
2023-03-17T01:59:20.121Z,6.94
2023-03-17T02:01:52.425Z,6.93
2023-03-17T02:04:21.767Z,6.89
2023-03-17T02:06:57.959Z,6.93
2023-03-17T02:09:28.017Z,6.95
2023-03-17T02:11:57.173Z,6.91
2023-03-17T02:14:25.454Z,6.91
2023-03-17T02:16:54.588Z,6.95
2023-03-17T02:19:22.315Z,6.96
2023-03-17T02:21:53.701Z,6.98
2023-03-17T02:24:27.455Z,7.05
2023-03-17T02:26:58.222Z,7.10
2023-03-17T02:29:25.847Z,7.15
2023-03-17T02:31:53.709Z,7.17
2023-03-17T02:34:21.735Z,7.17
2023-03-17T02:36:49.418Z,7.24
2023-03-17T02:39:18.557Z,7.30
2023-03-17T02:41:46.224Z,7.21
2023-03-17T02:44:13.930Z,7.19
2023-03-17T02:46:41.663Z,7.16
2023-03-17T02:49:10.000Z,7.12
2023-03-17T02:51:37.744Z,7.04
2023-03-17T02:54:05.585Z,7.07
2023-03-17T02:56:34.681Z,6.99
2023-03-17T02:59:02.306Z,6.98
2023-03-17T03:01:30.920Z,7.01
2023-03-17T03:03:58.843Z,6.95
2023-03-17T03:06:26.749Z,7.04
2023-03-17T03:08:54.538Z,7.00
2023-03-17T03:11:27.853Z,6.96
2023-03-17T03:13:56.928Z,6.93
2023-03-17T03:16:25.150Z,6.97
2023-03-17T03:18:52.920Z,6.97
2023-03-17T03:21:20.557Z,7.00
2023-03-17T03:23:48.285Z,7.06
2023-03-17T03:26:16.270Z,7.09
2023-03-17T03:28:43.919Z,7.06
2023-03-17T03:31:13.772Z,7.03
2023-03-17T03:33:41.694Z,7.05
2023-03-17T03:36:10.125Z,7.08
2023-03-17T03:38:39.300Z,7.02
2023-03-17T03:41:07.358Z,7.00
2023-03-17T03:43:35.267Z,6.99
2023-03-17T03:46:03.209Z,6.94
2023-03-17T03:48:32.333Z,6.89
2023-03-17T03:51:01.251Z,6.88
2023-03-17T03:53:29.932Z,6.89
2023-03-17T03:55:57.565Z,6.87
2023-03-17T03:58:25.338Z,6.81
2023-03-17T04:00:53.038Z,6.77
2023-03-17T04:03:20.682Z,6.76
2023-03-17T04:05:51.697Z,6.79
2023-03-17T04:08:19.360Z,6.83
2023-03-17T04:10:47.516Z,6.82
2023-03-17T04:13:15.360Z,6.77
2023-03-17T04:15:43.098Z,6.76
2023-03-17T04:18:11.578Z,6.75
2023-03-17T04:20:39.428Z,6.71
2023-03-17T04:23:08.608Z,6.76
2023-03-17T04:25:36.735Z,6.71
2023-03-17T04:28:04.730Z,6.76
2023-03-17T04:30:32.713Z,6.74
2023-03-17T04:33:01.018Z,6.73
2023-03-17T04:35:28.699Z,6.69
2023-03-17T04:37:56.544Z,6.66
2023-03-17T04:40:25.582Z,6.67
2023-03-17T04:42:53.242Z,6.62
2023-03-17T04:45:21.026Z,6.67
2023-03-17T04:47:48.674Z,6.71
2023-03-17T04:50:17.876Z,6.72
2023-03-17T04:52:45.550Z,6.71
2023-03-17T04:55:13.181Z,6.73
2023-03-17T04:57:42.103Z,6.80
2023-03-17T05:00:11.759Z,6.82
2023-03-17T05:02:39.887Z,6.76
2023-03-17T05:05:08.509Z,6.75
2023-03-17T05:07:36.402Z,6.73
2023-03-17T05:10:04.130Z,6.75
2023-03-17T05:12:31.992Z,6.72
2023-03-17T05:15:00.939Z,6.66
2023-03-17T05:17:28.546Z,6.66
2023-03-17T05:19:56.370Z,6.62
2023-03-17T05:22:24.053Z,6.64
2023-03-17T05:24:51.778Z,6.69
2023-03-17T05:27:19.375Z,6.72
2023-03-17T05:29:47.483Z,6.84
2023-03-17T05:32:18.305Z,6.84
2023-03-17T05:34:46.268Z,6.82
2023-03-17T05:37:15.554Z,6.88
2023-03-17T05:39:43.640Z,6.92
2023-03-17T05:42:11.463Z,6.80
2023-03-17T05:44:39.607Z,6.77
2023-03-17T05:47:08.363Z,6.73
2023-03-17T05:49:37.434Z,6.72
2023-03-17T05:52:05.100Z,6.73
2023-03-17T05:54:32.856Z,6.71
2023-03-17T05:57:01.015Z,6.81
2023-03-17T05:59:28.996Z,6.77
2023-03-17T06:01:57.161Z,6.72
2023-03-17T06:04:25.277Z,6.73
2023-03-17T06:06:54.220Z,6.76
2023-03-17T06:09:21.939Z,6.77
2023-03-17T06:11:49.565Z,6.81
2023-03-17T06:14:17.342Z,6.76
2023-03-17T06:16:45.062Z,6.71
2023-03-17T06:19:13.025Z,6.69
2023-03-17T06:21:41.142Z,6.71
2023-03-17T06:24:10.535Z,6.71
2023-03-17T06:26:38.257Z,6.73
2023-03-17T06:29:08.993Z,6.70
2023-03-17T06:31:37.151Z,6.71
2023-03-17T06:34:05.638Z,6.78
2023-03-17T06:36:33.763Z,6.76
2023-03-17T06:39:02.028Z,6.88
2023-03-17T06:41:31.333Z,6.92
2023-03-17T06:43:59.184Z,6.94
2023-03-17T06:46:27.108Z,7.03
2023-03-17T06:48:54.915Z,7.07
2023-03-17T06:51:22.553Z,7.08
2023-03-17T06:53:50.477Z,7.12
2023-03-17T06:56:29.577Z,7.16
2023-03-17T06:58:59.361Z,7.20
2023-03-17T07:01:27.705Z,7.27
2023-03-17T07:03:55.461Z,7.33
2023-03-17T07:06:24.227Z,7.45
2023-03-17T07:08:52.244Z,7.54
2023-03-17T07:11:20.360Z,7.63
2023-03-17T07:13:48.034Z,7.68
2023-03-17T07:16:19.507Z,7.70
2023-03-17T07:18:47.454Z,7.75
2023-03-17T07:21:15.699Z,7.84
2023-03-17T07:23:43.348Z,7.95
2023-03-17T07:26:11.146Z,8.03
2023-03-17T07:28:39.009Z,8.09
2023-03-17T07:31:08.780Z,8.24
2023-03-17T07:33:38.206Z,8.41
2023-03-17T07:36:07.281Z,8.48
2023-03-17T07:38:36.101Z,8.48
2023-03-17T07:41:04.646Z,8.49
2023-03-17T07:43:32.295Z,8.54
2023-03-17T07:46:00.143Z,8.66
2023-03-17T07:48:28.177Z,8.63
2023-03-17T07:50:57.132Z,8.75
2023-03-17T07:53:25.250Z,8.82
2023-03-17T07:55:52.835Z,8.86
2023-03-17T07:58:21.632Z,8.91
2023-03-17T08:00:49.847Z,8.96
2023-03-17T08:03:17.643Z,9.00
2023-03-17T08:05:47.861Z,9.09
2023-03-17T08:08:17.123Z,9.02
2023-03-17T08:10:47.131Z,9.09
2023-03-17T08:13:15.113Z,9.20
2023-03-17T08:15:43.459Z,9.32
2023-03-17T08:18:11.467Z,9.46
2023-03-17T08:20:39.133Z,9.57
2023-03-17T08:23:07.391Z,9.68
2023-03-17T08:25:36.919Z,9.76
2023-03-17T08:28:04.672Z,9.71
2023-03-17T08:30:33.943Z,9.72
2023-03-17T08:33:02.572Z,9.69
2023-03-17T08:35:31.032Z,9.72
2023-03-17T08:37:59.058Z,9.86
2023-03-17T08:40:26.853Z,9.92
2023-03-17T08:42:55.915Z,9.95
2023-03-17T08:45:23.600Z,9.95
2023-03-17T08:47:51.308Z,10.03
2023-03-17T08:50:21.870Z,10.14
2023-03-17T08:52:51.439Z,10.08
2023-03-17T08:55:19.962Z,10.15
2023-03-17T08:57:48.741Z,10.11
2023-03-17T09:00:20.483Z,10.15
2023-03-17T09:02:49.353Z,10.22
2023-03-17T09:05:18.412Z,10.35
2023-03-17T09:07:46.070Z,10.52
2023-03-17T09:10:14.928Z,10.50
2023-03-17T09:12:42.948Z,10.53
2023-03-17T09:15:12.923Z,10.65
2023-03-17T09:17:43.703Z,10.70
2023-03-17T09:20:12.410Z,10.73
2023-03-17T09:22:40.000Z,10.88
2023-03-17T09:25:08.207Z,10.86
2023-03-17T09:27:36.559Z,10.79
2023-03-17T09:30:04.496Z,10.86
2023-03-17T09:32:32.304Z,10.97
2023-03-17T09:35:01.880Z,11.02
2023-03-17T09:37:29.473Z,11.13
2023-03-17T09:39:57.899Z,11.24
2023-03-17T09:42:43.674Z,11.33
2023-03-17T09:45:22.412Z,11.36
2023-03-17T09:47:59.248Z,11.41
2023-03-17T09:50:40.250Z,11.44
2023-03-17T09:53:16.727Z,11.52
2023-03-17T09:55:49.109Z,11.63
2023-03-17T09:58:19.770Z,11.68
2023-03-17T10:00:47.443Z,11.69
2023-03-17T10:03:16.036Z,11.56
2023-03-17T10:05:45.749Z,11.53
2023-03-17T10:08:30.165Z,11.62
2023-03-17T10:11:03.998Z,11.67
2023-03-17T10:13:45.471Z,11.68
2023-03-17T10:16:15.285Z,11.72
2023-03-17T10:18:47.800Z,11.83
2023-03-17T10:21:21.545Z,11.82
2023-03-17T10:23:49.487Z,11.79
2023-03-17T10:26:28.888Z,11.78
2023-03-17T10:28:57.452Z,11.83
2023-03-17T10:31:30.790Z,11.97
2023-03-17T10:34:05.282Z,12.06
2023-03-17T10:36:38.769Z,12.06
2023-03-17T10:39:08.520Z,12.18
2023-03-17T10:41:40.950Z,12.23
2023-03-17T10:44:11.058Z,12.25
2023-03-17T10:46:40.133Z,12.29
2023-03-17T10:49:10.960Z,12.34
2023-03-17T10:51:40.753Z,12.36
2023-03-17T10:54:11.848Z,12.31
2023-03-17T10:56:42.828Z,12.38
2023-03-17T10:59:19.375Z,12.50
2023-03-17T11:01:56.945Z,12.56
2023-03-17T11:04:31.632Z,12.65
2023-03-17T11:07:09.941Z,12.64
2023-03-17T11:09:38.829Z,12.72
2023-03-17T11:12:08.780Z,12.78
2023-03-17T11:14:37.845Z,12.82
2023-03-17T11:17:17.059Z,12.82
2023-03-17T11:19:53.366Z,12.85
2023-03-17T11:22:31.805Z,12.94
2023-03-17T11:25:11.431Z,12.99
2023-03-17T11:27:47.969Z,13.07
2023-03-17T11:30:18.586Z,13.11
2023-03-17T11:32:56.790Z,13.16
2023-03-17T11:35:53.033Z,13.20
2023-03-17T11:38:28.176Z,13.19
2023-03-17T11:41:13.278Z,13.20
2023-03-17T11:43:54.271Z,13.30
2023-03-17T11:46:27.834Z,13.37
2023-03-17T11:49:03.500Z,13.44
2023-03-17T11:51:37.466Z,13.53
2023-03-17T11:54:13.869Z,13.65
2023-03-17T11:56:46.752Z,13.72
2023-03-17T11:59:21.682Z,13.77
2023-03-17T12:01:58.136Z,13.85
2023-03-17T12:04:34.228Z,14.04
2023-03-17T12:07:09.778Z,14.14
2023-03-17T12:09:45.806Z,14.19
2023-03-17T12:12:20.822Z,14.19
2023-03-17T12:14:52.348Z,14.20
2023-03-17T12:17:26.840Z,14.24
2023-03-17T12:20:06.682Z,14.30
2023-03-17T12:22:41.365Z,14.38
2023-03-17T12:25:18.925Z,14.44
2023-03-17T12:27:58.852Z,14.55
2023-03-17T12:30:32.371Z,14.62
2023-03-17T12:33:12.351Z,14.65
2023-03-17T12:35:40.617Z,14.66
2023-03-17T12:38:13.630Z,14.71
2023-03-17T12:41:10.921Z,14.69
2023-03-17T12:43:47.799Z,14.72
2023-03-17T12:46:44.774Z,14.72
2023-03-17T12:49:31.404Z,14.73
2023-03-17T12:52:12.376Z,14.79
2023-03-17T12:54:47.805Z,14.89
2023-03-17T12:57:20.308Z,14.96
2023-03-17T12:59:50.495Z,15.01
2023-03-17T13:02:32.225Z,15.07
2023-03-17T13:05:01.974Z,15.12
2023-03-17T13:07:36.760Z,15.14
2023-03-17T13:10:39.898Z,15.18
2023-03-17T13:13:13.035Z,15.16
2023-03-17T13:15:58.787Z,15.19
2023-03-17T13:18:51.174Z,15.21
2023-03-17T13:21:24.917Z,15.24
2023-03-17T13:24:24.546Z,15.27
2023-03-17T13:27:01.602Z,15.31
2023-03-17T13:29:43.678Z,15.39
2023-03-17T13:32:32.663Z,15.42
2023-03-17T13:35:26.478Z,15.52
2023-03-17T13:38:10.601Z,15.49
2023-03-17T13:40:52.451Z,15.52
2023-03-17T13:43:46.693Z,15.56
2023-03-17T13:46:27.467Z,15.57
2023-03-17T13:48:57.419Z,15.57
2023-03-17T13:51:28.118Z,15.58
2023-03-17T13:53:58.093Z,15.55
2023-03-17T13:56:30.391Z,15.58
2023-03-17T13:59:13.585Z,15.60
2023-03-17T14:01:48.229Z,15.63
2023-03-17T14:04:22.749Z,15.63
2023-03-17T14:06:54.045Z,15.66
2023-03-17T14:09:32.064Z,15.65
2023-03-17T14:12:04.146Z,15.64
2023-03-17T14:14:39.188Z,15.72
2023-03-17T14:17:14.833Z,15.75
2023-03-17T14:19:43.348Z,15.78
2023-03-17T14:22:23.267Z,15.78
2023-03-17T14:24:54.961Z,15.78
2023-03-17T14:27:25.357Z,15.79
2023-03-17T14:29:53.182Z,15.78
2023-03-17T14:32:26.411Z,15.79
2023-03-17T14:34:59.263Z,15.80
2023-03-17T14:37:27.791Z,15.76
2023-03-17T14:39:58.833Z,15.68
2023-03-17T14:42:28.459Z,15.62
2023-03-17T14:45:04.260Z,15.59
2023-03-17T14:47:39.513Z,15.56
2023-03-17T14:50:19.753Z,15.54
2023-03-17T14:52:47.632Z,15.52
2023-03-17T14:55:16.987Z,15.49
2023-03-17T14:57:50.906Z,15.49
2023-03-17T15:00:34.840Z,15.49
2023-03-17T15:03:05.774Z,15.49
2023-03-17T15:05:41.835Z,15.45
2023-03-17T15:08:29.368Z,15.45
2023-03-17T15:11:01.957Z,15.42
2023-03-17T15:13:34.135Z,15.40
2023-03-17T15:16:07.327Z,15.37
2023-03-17T15:18:36.408Z,15.37
2023-03-17T15:21:04.053Z,15.33
2023-03-17T15:23:40.618Z,15.30
2023-03-17T15:26:22.688Z,15.29
2023-03-17T15:28:50.612Z,15.28
2023-03-17T15:31:23.365Z,15.26
2023-03-17T15:33:53.111Z,15.25
2023-03-17T15:36:31.947Z,15.23
2023-03-17T15:39:00.716Z,15.18
2023-03-17T15:41:28.671Z,15.18
2023-03-17T15:43:56.742Z,15.14
2023-03-17T15:46:30.640Z,15.14
2023-03-17T15:49:00.449Z,15.13
2023-03-17T15:51:28.437Z,15.11
2023-03-17T15:53:56.081Z,15.11
2023-03-17T15:56:23.878Z,15.10
2023-03-17T15:58:52.621Z,15.09
2023-03-17T16:01:22.497Z,15.07
2023-03-17T16:03:50.642Z,15.06
2023-03-17T16:06:23.327Z,15.03
2023-03-17T16:08:51.757Z,15.01
2023-03-17T16:11:30.403Z,15.00
2023-03-17T16:14:00.667Z,14.99
2023-03-17T16:16:37.504Z,14.97
2023-03-17T16:19:06.461Z,14.94
2023-03-17T16:21:36.021Z,14.92
2023-03-17T16:24:09.679Z,14.91
2023-03-17T16:26:37.611Z,14.91
2023-03-17T16:29:11.805Z,14.90
2023-03-17T16:31:41.607Z,14.97
2023-03-17T16:34:17.253Z,14.96
2023-03-17T16:36:50.508Z,14.96
2023-03-17T16:39:19.868Z,14.94
2023-03-17T16:41:48.733Z,14.93
2023-03-17T16:44:20.101Z,14.91
2023-03-17T16:46:48.981Z,14.89
2023-03-17T16:49:21.131Z,14.86
2023-03-17T16:51:50.796Z,14.81
2023-03-17T16:54:19.131Z,14.77
2023-03-17T16:56:48.882Z,14.74
2023-03-17T16:59:20.769Z,14.78
2023-03-17T17:01:48.929Z,14.82
2023-03-17T17:04:16.915Z,14.83
2023-03-17T17:06:44.866Z,14.86
2023-03-17T17:09:13.946Z,14.86
2023-03-17T17:11:41.691Z,14.87
2023-03-17T17:14:09.875Z,14.86
2023-03-17T17:16:40.639Z,14.87
2023-03-17T17:19:16.381Z,14.87
2023-03-17T17:21:45.160Z,14.85
2023-03-17T17:24:15.115Z,14.81
2023-03-17T17:26:42.959Z,14.70
2023-03-17T17:29:10.652Z,14.62
2023-03-17T17:31:38.394Z,14.56
2023-03-17T17:34:06.180Z,14.50
2023-03-17T17:36:34.335Z,14.45
2023-03-17T17:39:04.341Z,14.43
2023-03-17T17:41:37.579Z,14.39
2023-03-17T17:44:06.463Z,14.35
2023-03-17T17:46:34.471Z,14.33
2023-03-17T17:49:02.259Z,14.31
2023-03-17T17:51:31.384Z,14.38
2023-03-17T17:53:59.537Z,14.43
2023-03-17T17:56:28.103Z,14.46
2023-03-17T17:58:57.399Z,14.52
2023-03-17T18:01:25.247Z,14.50
2023-03-17T18:03:52.969Z,14.52
2023-03-17T18:06:20.676Z,14.54
2023-03-17T18:08:50.213Z,14.52
2023-03-17T18:11:19.364Z,14.48
2023-03-17T18:13:47.543Z,14.49
2023-03-17T18:16:18.547Z,14.50
2023-03-17T18:18:47.072Z,14.47
2023-03-17T18:21:15.929Z,14.45
2023-03-17T18:23:49.135Z,14.46
2023-03-17T18:26:18.180Z,14.47
2023-03-17T18:28:46.020Z,14.50
2023-03-17T18:31:19.233Z,14.53
2023-03-17T18:33:49.203Z,14.47
2023-03-17T18:36:18.141Z,14.35
2023-03-17T18:38:46.936Z,14.24
2023-03-17T18:41:16.069Z,14.15
2023-03-17T18:43:44.806Z,14.13
2023-03-17T18:46:12.963Z,14.12
2023-03-17T18:48:42.063Z,14.11
2023-03-17T18:51:09.774Z,14.12
2023-03-17T18:53:39.241Z,14.11
2023-03-17T18:56:07.691Z,14.07
2023-03-17T18:58:36.188Z,14.05
2023-03-17T19:01:04.477Z,14.05
2023-03-17T19:03:33.377Z,14.04
2023-03-17T19:06:10.635Z,14.06
2023-03-17T19:08:38.404Z,14.05
2023-03-17T19:11:07.620Z,13.99
2023-03-17T19:13:35.835Z,13.97
2023-03-17T19:16:03.694Z,13.96
2023-03-17T19:18:31.884Z,13.95
2023-03-17T19:20:59.555Z,13.94
2023-03-17T19:23:29.263Z,13.93
2023-03-17T19:25:56.823Z,13.95
2023-03-17T19:28:24.551Z,13.95
2023-03-17T19:30:52.268Z,13.96
2023-03-17T19:33:20.011Z,13.96
2023-03-17T19:35:53.995Z,13.93
2023-03-17T19:38:21.850Z,13.89
2023-03-17T19:40:50.744Z,13.86
2023-03-17T19:43:36.857Z,13.82
2023-03-17T19:46:06.315Z,13.79
2023-03-17T19:48:34.554Z,13.76
2023-03-17T19:51:03.365Z,13.74
2023-03-17T19:53:31.378Z,13.73
2023-03-17T19:56:00.376Z,13.73
2023-03-17T19:58:28.172Z,13.72
2023-03-17T20:00:56.212Z,13.73
2023-03-17T20:03:26.181Z,13.73
2023-03-17T20:05:54.225Z,13.69
2023-03-17T20:08:22.608Z,13.65
2023-03-17T20:10:53.883Z,13.65
2023-03-17T20:13:23.308Z,13.66
2023-03-17T20:15:51.704Z,13.66
2023-03-17T20:18:20.195Z,13.65
2023-03-17T20:20:52.953Z,13.63
2023-03-17T20:23:22.756Z,13.55
2023-03-17T20:25:52.797Z,13.52
2023-03-17T20:28:24.145Z,13.47
2023-03-17T20:30:52.729Z,13.52
2023-03-17T20:33:21.538Z,13.55
2023-03-17T20:35:50.184Z,13.46
2023-03-17T20:38:18.618Z,13.46
2023-03-17T20:40:47.068Z,13.44
2023-03-17T20:43:16.145Z,13.37
2023-03-17T20:45:46.224Z,13.43
2023-03-17T20:48:14.609Z,13.43
2023-03-17T20:50:51.168Z,13.43
2023-03-17T20:53:19.278Z,13.42
2023-03-17T20:55:48.095Z,13.46
2023-03-17T20:58:16.081Z,13.49
2023-03-17T21:00:45.587Z,13.52
2023-03-17T21:03:13.273Z,13.52
2023-03-17T21:05:42.281Z,13.50
2023-03-17T21:08:10.568Z,13.53
2023-03-17T21:10:39.264Z,13.47
2023-03-17T21:13:07.377Z,13.43
2023-03-17T21:15:36.002Z,13.37
2023-03-17T21:18:05.808Z,13.35
2023-03-17T21:20:33.940Z,13.28
2023-03-17T21:23:04.476Z,13.19
2023-03-17T21:25:35.995Z,13.06
2023-03-17T21:28:04.903Z,13.02
2023-03-17T21:30:34.111Z,12.97
2023-03-17T21:33:02.109Z,12.95
2023-03-17T21:35:34.476Z,12.96
2023-03-17T21:38:02.750Z,13.02
2023-03-17T21:40:31.583Z,13.09
2023-03-17T21:43:00.624Z,13.11
2023-03-17T21:45:29.221Z,13.05
2023-03-17T21:47:56.967Z,13.03
2023-03-17T21:50:24.732Z,12.97
2023-03-17T21:52:54.189Z,12.95
2023-03-17T21:55:21.859Z,12.93
2023-03-17T21:57:49.524Z,12.93
2023-03-17T22:00:18.002Z,12.97
2023-03-17T22:02:45.783Z,12.98
2023-03-17T22:05:18.336Z,12.94
2023-03-17T22:07:46.573Z,12.92
2023-03-17T22:10:15.571Z,12.91
2023-03-17T22:12:43.559Z,12.91
2023-03-17T22:15:12.120Z,12.90
2023-03-17T22:17:40.160Z,12.92
2023-03-17T22:20:08.973Z,12.95
2023-03-17T22:22:36.784Z,12.97
2023-03-17T22:25:06.182Z,12.98
2023-03-17T22:27:35.294Z,12.97
2023-03-17T22:30:03.029Z,12.99
2023-03-17T22:32:30.697Z,13.02
2023-03-17T22:34:59.253Z,13.03
2023-03-17T22:37:30.084Z,13.02
2023-03-17T22:40:02.455Z,13.05
2023-03-17T22:42:30.991Z,13.05
2023-03-17T22:44:59.970Z,13.08
2023-03-17T22:47:27.628Z,13.08
2023-03-17T22:49:55.229Z,13.03
2023-03-17T22:52:23.454Z,13.03
2023-03-17T22:54:51.334Z,13.03
2023-03-17T22:57:19.441Z,13.02
2023-03-17T22:59:47.373Z,12.93
2023-03-17T23:02:18.504Z,12.86
2023-03-17T23:04:46.406Z,12.87
2023-03-17T23:07:14.595Z,12.81
2023-03-17T23:09:42.643Z,12.81
2023-03-17T23:12:10.754Z,12.79
2023-03-17T23:14:39.273Z,12.83
2023-03-17T23:17:07.414Z,12.83
2023-03-17T23:19:36.507Z,12.85
2023-03-17T23:22:04.122Z,12.87
2023-03-17T23:24:31.697Z,12.88
2023-03-17T23:26:59.361Z,12.90
2023-03-17T23:29:27.667Z,12.91
2023-03-17T23:31:55.487Z,12.91
2023-03-17T23:34:23.203Z,12.90
2023-03-17T23:36:52.343Z,12.89
2023-03-17T23:39:20.317Z,12.89
2023-03-17T23:41:48.004Z,12.89
2023-03-17T23:44:16.268Z,12.91
2023-03-17T23:46:44.934Z,12.91
2023-03-17T23:49:13.081Z,12.89
2023-03-17T23:51:40.780Z,12.91
2023-03-17T23:54:10.146Z,12.94
2023-03-17T23:56:37.915Z,12.91
2023-03-17T23:59:07.493Z,12.88
